createdAt,value
2023-05-18T00:02:16.226Z,6.72
2023-05-18T00:04:44.450Z,2.22
2023-05-18T00:07:12.602Z,1.33
2023-05-18T00:09:41.265Z,3.40
2023-05-18T00:12:10.021Z,3.65
2023-05-18T00:14:37.522Z,2.33
2023-05-18T00:17:05.168Z,3.37
2023-05-18T00:19:33.361Z,4.00
2023-05-18T00:22:02.271Z,2.83
2023-05-18T00:24:29.768Z,2.12
2023-05-18T00:26:57.506Z,2.90
2023-05-18T00:29:25.023Z,3.25
2023-05-18T00:31:52.609Z,2.70
2023-05-18T00:34:20.633Z,3.33
2023-05-18T00:36:48.201Z,3.92
2023-05-18T00:39:15.929Z,3.30
2023-05-18T00:41:43.640Z,4.20
2023-05-18T00:44:11.370Z,2.97
2023-05-18T00:46:38.924Z,6.25
2023-05-18T00:49:06.706Z,5.55
2023-05-18T00:51:34.621Z,2.58
2023-05-18T00:54:03.544Z,2.50
2023-05-18T00:56:34.311Z,2.70
2023-05-18T00:59:03.289Z,3.05
2023-05-18T01:01:36.496Z,3.92
2023-05-18T01:04:04.704Z,3.72
2023-05-18T01:06:36.269Z,4.07
2023-05-18T01:09:06.998Z,3.10
2023-05-18T01:11:53.022Z,2.53
2023-05-18T01:14:37.476Z,3.37
2023-05-18T01:17:10.430Z,3.40
2023-05-18T01:19:59.926Z,3.72
2023-05-18T01:22:42.582Z,3.22
2023-05-18T01:25:33.308Z,2.40
2023-05-18T01:28:06.432Z,2.97
2023-05-18T01:30:39.055Z,2.22
2023-05-18T01:33:10.856Z,3.87
2023-05-18T01:35:41.764Z,2.30
2023-05-18T01:38:09.463Z,4.47
2023-05-18T01:41:01.592Z,3.83
2023-05-18T01:43:34.982Z,4.50
2023-05-18T01:46:21.243Z,2.87
2023-05-18T01:48:51.929Z,4.00
2023-05-18T01:51:21.211Z,3.00
2023-05-18T01:54:00.843Z,3.35
2023-05-18T01:56:28.790Z,9.02
2023-05-18T01:58:57.832Z,3.53
2023-05-18T02:01:25.578Z,4.62
2023-05-18T02:03:53.416Z,2.90
2023-05-18T02:06:21.421Z,3.45
2023-05-18T02:08:48.883Z,3.65
2023-05-18T02:11:16.915Z,4.47
2023-05-18T02:13:44.381Z,4.35
2023-05-18T02:16:11.982Z,4.62
2023-05-18T02:18:39.916Z,5.20
2023-05-18T02:21:10.086Z,3.55
2023-05-18T02:23:37.579Z,2.80
2023-05-18T02:26:07.633Z,3.75
2023-05-18T02:28:35.041Z,4.07
2023-05-18T02:31:09.890Z,3.75
2023-05-18T02:33:40.869Z,2.92
2023-05-18T02:36:13.525Z,5.78
2023-05-18T02:38:43.702Z,4.30
2023-05-18T02:41:12.297Z,7.30
2023-05-18T02:43:39.883Z,4.57
2023-05-18T02:46:08.104Z,4.97
2023-05-18T02:48:36.401Z,3.60
2023-05-18T02:51:03.899Z,4.75
2023-05-18T02:53:31.688Z,3.87
2023-05-18T02:56:03.238Z,4.32
2023-05-18T02:58:31.111Z,5.87
2023-05-18T03:01:00.307Z,5.20
2023-05-18T03:03:28.161Z,3.35
2023-05-18T03:05:56.062Z,3.42
2023-05-18T03:08:26.727Z,6.75
2023-05-18T03:10:54.999Z,4.22
2023-05-18T03:13:22.433Z,3.45
2023-05-18T03:15:51.092Z,5.28
2023-05-18T03:18:21.900Z,6.12
2023-05-18T03:20:52.966Z,4.20
2023-05-18T03:23:21.187Z,3.70
2023-05-18T03:25:53.707Z,5.30
2023-05-18T03:28:22.437Z,5.47
2023-05-18T03:30:50.073Z,3.87
2023-05-18T03:33:17.700Z,3.22
2023-05-18T03:35:47.115Z,4.55
2023-05-18T03:38:16.369Z,2.90
2023-05-18T03:40:44.628Z,2.75
2023-05-18T03:43:12.466Z,3.47
2023-05-18T03:45:40.702Z,4.32
2023-05-18T03:48:08.300Z,4.25
2023-05-18T03:50:36.836Z,3.78
2023-05-18T03:53:04.506Z,4.05
2023-05-18T03:55:32.475Z,4.15
2023-05-18T03:58:01.496Z,5.03
2023-05-18T04:00:28.941Z,3.95
2023-05-18T04:02:57.050Z,5.65
2023-05-18T04:05:25.916Z,5.12
2023-05-18T04:07:53.319Z,5.78
2023-05-18T04:10:21.997Z,8.18
2023-05-18T04:12:49.730Z,5.37
2023-05-18T04:15:17.366Z,6.03
2023-05-18T04:17:45.859Z,4.07
2023-05-18T04:20:14.610Z,4.40
2023-05-18T04:22:46.689Z,5.55
2023-05-18T04:25:15.315Z,4.35
2023-05-18T04:27:45.540Z,5.22
2023-05-18T04:30:14.058Z,5.43
2023-05-18T04:32:43.206Z,6.10
2023-05-18T04:35:11.737Z,5.15
2023-05-18T04:37:40.399Z,3.80
2023-05-18T04:40:17.101Z,7.37
2023-05-18T04:42:47.731Z,5.20
2023-05-18T04:45:19.230Z,5.40
2023-05-18T04:47:47.952Z,4.40
2023-05-18T04:50:16.636Z,7.00
2023-05-18T04:52:48.486Z,4.75
2023-05-18T04:57:47.655Z,5.60
2023-05-18T05:00:15.990Z,5.30
2023-05-18T05:02:43.965Z,5.62
2023-05-18T05:05:11.913Z,6.72
2023-05-18T05:07:39.602Z,5.70
2023-05-18T05:10:09.772Z,6.97
2023-05-18T05:12:38.184Z,5.60
2023-05-18T05:15:06.593Z,6.60
2023-05-18T05:17:34.339Z,5.82
2023-05-18T05:20:02.102Z,6.60
2023-05-18T05:22:29.793Z,6.03
2023-05-18T05:24:57.682Z,6.22
2023-05-18T05:27:26.274Z,6.47
2023-05-18T05:29:53.730Z,5.62
2023-05-18T05:32:22.249Z,5.40
2023-05-18T05:34:51.754Z,8.18
2023-05-18T05:37:19.444Z,5.60
2023-05-18T05:39:48.202Z,5.43
2023-05-18T05:42:16.924Z,6.30
2023-05-18T05:44:44.409Z,7.20
2023-05-18T05:47:12.208Z,7.93
2023-05-18T05:49:41.012Z,7.20
2023-05-18T05:52:08.562Z,8.32
2023-05-18T05:54:36.540Z,7.10
2023-05-18T05:57:04.417Z,7.70
2023-05-18T05:59:31.875Z,7.78
2023-05-18T06:01:59.825Z,6.45
2023-05-18T06:04:28.034Z,5.20
2023-05-18T06:06:55.583Z,6.93
2023-05-18T06:09:23.060Z,5.03
2023-05-18T06:11:51.027Z,5.97
2023-05-18T06:14:18.642Z,4.70
2023-05-18T06:16:46.241Z,6.55
2023-05-18T06:19:14.203Z,7.15
2023-05-18T06:21:41.794Z,7.47
2023-05-18T06:24:09.764Z,12.40
2023-05-18T06:26:37.947Z,6.70
2023-05-18T06:29:05.704Z,5.37
2023-05-18T06:31:33.331Z,4.18
2023-05-18T06:34:01.093Z,7.68
2023-05-18T06:36:28.561Z,6.28
2023-05-18T06:38:57.798Z,9.45
2023-05-18T06:41:25.623Z,9.75
2023-05-18T06:43:53.148Z,5.30
2023-05-18T06:46:26.445Z,5.05
2023-05-18T06:48:55.145Z,5.55
2023-05-18T06:51:22.717Z,6.03
2023-05-18T06:53:50.463Z,5.40
2023-05-18T06:56:19.481Z,4.00
2023-05-18T06:58:47.608Z,4.22
2023-05-18T07:01:15.471Z,4.80
2023-05-18T07:03:44.084Z,4.62
2023-05-18T07:06:11.539Z,4.87
2023-05-18T07:08:38.959Z,5.93
2023-05-18T07:11:06.794Z,4.10
2023-05-18T07:13:34.193Z,5.65
2023-05-18T07:16:01.717Z,5.47
2023-05-18T07:18:29.490Z,4.55
2023-05-18T07:20:56.919Z,4.30
2023-05-18T07:23:24.358Z,4.03
2023-05-18T07:25:52.106Z,7.62
2023-05-18T07:28:19.621Z,4.85
2023-05-18T07:30:47.058Z,4.95
2023-05-18T07:33:14.880Z,2.50
2023-05-18T07:35:42.396Z,4.30
2023-05-18T07:38:09.866Z,5.37
2023-05-18T07:40:37.655Z,6.70
2023-05-18T07:43:05.063Z,6.60
2023-05-18T07:45:32.855Z,3.70
2023-05-18T07:48:01.301Z,3.90
2023-05-18T07:50:29.572Z,6.60
2023-05-18T07:52:57.149Z,5.72
2023-05-18T07:55:24.834Z,4.40
2023-05-18T07:57:52.723Z,3.03
2023-05-18T08:00:20.530Z,3.55
2023-05-18T08:02:48.580Z,1.55
2023-05-18T08:05:16.326Z,2.20
2023-05-18T08:07:43.763Z,1.12
2023-05-18T08:10:11.658Z,1.30
2023-05-18T08:12:39.123Z,1.58
2023-05-18T08:15:07.894Z,2.97
2023-05-18T08:17:35.975Z,1.10
2023-05-18T08:20:04.940Z,1.08
2023-05-18T08:22:32.455Z,2.40
2023-05-18T08:25:01.391Z,3.40
2023-05-18T08:27:29.160Z,0.37
2023-05-18T08:29:56.647Z,1.02
2023-05-18T08:32:24.447Z,0.75
2023-05-18T08:34:51.962Z,1.02
2023-05-18T08:37:19.500Z,1.23
2023-05-18T08:39:47.231Z,0.55
2023-05-18T08:42:27.568Z,1.05
2023-05-18T08:45:13.255Z,1.80
2023-05-18T08:47:41.539Z,0.45
2023-05-18T08:50:13.650Z,1.33
2023-05-18T08:52:43.676Z,1.48
2023-05-18T08:55:12.476Z,0.80
2023-05-18T08:57:43.416Z,1.27
2023-05-18T09:00:12.280Z,0.45
2023-05-18T09:02:40.529Z,0.60
2023-05-18T09:05:08.861Z,0.80
2023-05-18T09:07:37.462Z,0.30
2023-05-18T09:10:05.575Z,2.17
2023-05-18T09:12:33.461Z,1.12
2023-05-18T09:15:01.321Z,1.17
2023-05-18T09:17:29.629Z,0.62
2023-05-18T09:19:57.632Z,0.50
2023-05-18T09:22:25.681Z,0.20
2023-05-18T09:24:53.457Z,2.15
2023-05-18T09:27:21.613Z,0.77
2023-05-18T09:29:54.252Z,0.50
2023-05-18T09:32:22.529Z,1.87
2023-05-18T09:34:50.786Z,1.05
2023-05-18T09:37:19.636Z,0.93
2023-05-18T09:40:00.256Z,0.68
2023-05-18T09:42:36.331Z,0.35
2023-05-18T09:45:14.761Z,1.98
2023-05-18T09:47:42.537Z,1.45
2023-05-18T09:50:10.238Z,0.68
2023-05-18T09:52:44.627Z,0.88
2023-05-18T09:55:12.451Z,1.73
2023-05-18T09:57:44.192Z,0.70
2023-05-18T10:00:13.001Z,1.10
2023-05-18T10:02:41.933Z,0.77
2023-05-18T10:05:20.206Z,0.70
2023-05-18T10:07:48.590Z,1.75
2023-05-18T10:10:23.371Z,1.23
2023-05-18T10:12:52.259Z,1.40
2023-05-18T10:15:22.030Z,0.45
2023-05-18T10:17:51.299Z,1.15
2023-05-18T10:20:20.924Z,0.75
2023-05-18T10:22:49.210Z,0.75
2023-05-18T10:25:21.812Z,0.62
2023-05-18T10:27:50.808Z,0.98
2023-05-18T10:30:18.412Z,2.37
2023-05-18T10:32:46.313Z,0.60
2023-05-18T10:35:14.768Z,1.15
2023-05-18T10:37:49.113Z,1.48
2023-05-18T10:40:17.873Z,1.00
2023-05-18T10:42:46.182Z,1.35
2023-05-18T10:45:15.240Z,1.45
2023-05-18T10:47:44.100Z,1.08
2023-05-18T10:50:11.802Z,0.75
2023-05-18T10:52:40.299Z,0.70
2023-05-18T10:55:08.744Z,1.77
2023-05-18T10:57:46.555Z,0.70
2023-05-18T11:00:14.423Z,1.45
2023-05-18T11:02:43.114Z,1.27
2023-05-18T11:05:11.375Z,0.70
2023-05-18T11:07:39.305Z,0.70
2023-05-18T11:10:11.102Z,1.27
2023-05-18T11:12:38.963Z,1.77
2023-05-18T11:15:07.076Z,1.12
2023-05-18T11:17:34.709Z,2.70
2023-05-18T11:20:08.596Z,1.95
2023-05-18T11:22:52.615Z,2.42
2023-05-18T11:25:26.557Z,1.42
2023-05-18T11:28:05.649Z,1.02
2023-05-18T11:30:33.364Z,1.40
2023-05-18T11:33:11.275Z,1.62
2023-05-18T11:36:12.103Z,1.37
2023-05-18T11:38:54.293Z,1.27
2023-05-18T11:41:36.042Z,2.28
2023-05-18T11:44:12.585Z,1.48
2023-05-18T11:46:42.944Z,1.17
2023-05-18T11:49:10.355Z,0.80
2023-05-18T11:51:59.545Z,1.00
2023-05-18T11:54:27.304Z,0.52
2023-05-18T11:56:56.239Z,2.12
2023-05-18T11:59:36.329Z,3.75
2023-05-18T12:02:04.296Z,1.15
2023-05-18T12:04:33.614Z,1.37
2023-05-18T12:07:04.886Z,1.37
2023-05-18T12:09:32.695Z,0.70
2023-05-18T12:12:01.664Z,1.10
2023-05-18T12:14:29.210Z,1.02
2023-05-18T12:16:57.945Z,0.88
2023-05-18T12:19:25.530Z,1.05
2023-05-18T12:21:54.023Z,2.28
2023-05-18T12:24:21.779Z,1.27
2023-05-18T12:26:49.886Z,2.85
2023-05-18T12:29:20.028Z,2.72
2023-05-18T12:31:48.141Z,1.30
2023-05-18T12:34:15.876Z,0.98
2023-05-18T12:36:54.413Z,2.97
2023-05-18T12:39:22.224Z,0.85
2023-05-18T12:41:49.671Z,1.05
2023-05-18T12:44:17.148Z,2.20
2023-05-18T12:46:44.807Z,1.10
2023-05-18T12:49:12.388Z,4.28
2023-05-18T12:51:40.070Z,2.95
2023-05-18T12:54:08.565Z,0.85
2023-05-18T12:57:02.043Z,1.08
2023-05-18T12:59:30.041Z,0.80
2023-05-18T13:04:44.182Z,1.35
2023-05-18T13:07:12.262Z,1.77
2023-05-18T13:09:45.871Z,3.22
2023-05-18T13:12:13.533Z,0.70
2023-05-18T13:14:41.204Z,1.12
2023-05-18T13:17:08.609Z,1.80
2023-05-18T13:19:36.759Z,2.25
2023-05-18T13:22:04.396Z,1.17
2023-05-18T13:24:32.087Z,1.08
2023-05-18T13:26:59.698Z,0.62
2023-05-18T13:29:26.985Z,2.17
2023-05-18T13:31:54.344Z,2.03
2023-05-18T13:34:21.937Z,2.92
2023-05-18T13:36:49.239Z,1.15
2023-05-18T13:39:17.773Z,0.70
2023-05-18T13:41:45.503Z,1.45
2023-05-18T13:44:15.012Z,1.37
2023-05-18T13:46:42.651Z,3.58
2023-05-18T13:49:11.895Z,1.40
2023-05-18T13:51:39.212Z,2.00
2023-05-18T13:54:07.825Z,1.30
2023-05-18T13:56:35.458Z,1.27
2023-05-18T13:59:03.596Z,1.20
2023-05-18T14:01:32.690Z,1.45
2023-05-18T14:04:00.487Z,1.00
2023-05-18T14:06:27.990Z,3.35
2023-05-18T14:08:55.554Z,2.17
2023-05-18T14:11:23.136Z,1.92
2023-05-18T14:13:50.614Z,0.70
2023-05-18T14:16:17.943Z,2.12
2023-05-18T14:18:45.581Z,1.27
2023-05-18T14:21:12.900Z,0.98
2023-05-18T14:23:40.236Z,0.90
2023-05-18T14:26:07.928Z,1.05
2023-05-18T14:28:35.413Z,2.55
2023-05-18T14:31:02.797Z,3.92
2023-05-18T14:33:30.519Z,1.45
2023-05-18T14:35:58.290Z,2.95
2023-05-18T14:38:26.992Z,1.80
2023-05-18T14:40:54.712Z,4.22
2023-05-18T14:43:22.113Z,1.33
2023-05-18T14:46:00.262Z,4.00
2023-05-18T14:48:34.904Z,3.00
2023-05-18T14:51:02.363Z,14.93
2023-05-18T14:53:29.736Z,7.05
2023-05-18T14:55:57.346Z,3.60
2023-05-18T14:58:24.632Z,7.85
2023-05-18T15:00:51.933Z,7.35
2023-05-18T15:03:19.612Z,4.75
2023-05-18T15:05:47.411Z,2.83
2023-05-18T15:08:14.791Z,3.22
2023-05-18T15:10:42.396Z,2.10
2023-05-18T15:13:09.955Z,2.80
2023-05-18T15:15:37.388Z,1.92
2023-05-18T15:18:05.074Z,2.97
2023-05-18T15:20:32.718Z,5.70
2023-05-18T15:23:00.533Z,3.92
2023-05-18T15:25:29.942Z,2.53
2023-05-18T15:27:58.012Z,1.37
2023-05-18T15:30:25.576Z,1.25
2023-05-18T15:32:53.278Z,1.80
2023-05-18T15:35:20.732Z,1.00
2023-05-18T15:37:48.257Z,0.90
2023-05-18T15:40:19.312Z,0.80
2023-05-18T15:42:46.649Z,3.33
2023-05-18T15:45:14.159Z,3.05
2023-05-18T15:47:42.421Z,2.42
2023-05-18T15:50:10.193Z,0.82
2023-05-18T15:52:37.554Z,2.62
2023-05-18T15:55:05.611Z,1.40
2023-05-18T15:57:33.160Z,2.78
2023-05-18T16:00:00.525Z,1.02
2023-05-18T16:02:28.266Z,1.77
2023-05-18T16:04:56.083Z,1.45
2023-05-18T16:07:23.464Z,1.65
2023-05-18T16:09:50.957Z,3.15
2023-05-18T16:12:18.551Z,1.27
2023-05-18T16:14:45.884Z,2.45
2023-05-18T16:17:13.351Z,1.00
2023-05-18T16:19:41.069Z,3.40
2023-05-18T16:22:09.225Z,1.33
2023-05-18T16:24:36.615Z,1.00
2023-05-18T16:27:04.462Z,2.15
2023-05-18T16:29:31.796Z,2.58
2023-05-18T16:31:59.243Z,1.30
2023-05-18T16:34:27.038Z,3.53
2023-05-18T16:36:56.078Z,1.23
2023-05-18T16:39:24.889Z,1.33
2023-05-18T16:41:54.242Z,1.77
2023-05-18T16:44:21.664Z,1.70
2023-05-18T16:46:49.168Z,2.65
2023-05-18T16:49:16.836Z,1.27
2023-05-18T16:51:44.261Z,3.42
2023-05-18T16:54:11.677Z,3.00
2023-05-18T16:56:39.288Z,1.27
2023-05-18T16:59:06.648Z,4.15
2023-05-18T17:01:34.042Z,2.75
2023-05-18T17:04:01.754Z,1.50
2023-05-18T17:06:29.157Z,1.37
2023-05-18T17:08:59.041Z,1.65
2023-05-18T17:11:27.536Z,1.58
2023-05-18T17:13:55.126Z,2.47
2023-05-18T17:16:23.374Z,1.12
2023-05-18T17:18:51.302Z,3.60
2023-05-18T17:21:18.651Z,2.60
2023-05-18T17:23:46.068Z,1.62
2023-05-18T17:26:13.673Z,1.48
2023-05-18T17:28:41.794Z,2.28
2023-05-18T17:31:09.258Z,1.15
2023-05-18T17:33:36.905Z,2.37
2023-05-18T17:36:04.624Z,1.77
2023-05-18T17:38:32.041Z,2.08
2023-05-18T17:40:59.632Z,3.12
2023-05-18T17:43:26.970Z,2.58
2023-05-18T17:45:54.316Z,1.35
2023-05-18T17:48:21.987Z,2.90
2023-05-18T17:50:49.592Z,1.62
2023-05-18T17:53:17.086Z,2.20
2023-05-18T17:55:44.717Z,3.92
2023-05-18T17:58:12.034Z,1.73
2023-05-18T18:00:39.783Z,1.90
2023-05-18T18:03:07.762Z,2.30
2023-05-18T18:05:36.125Z,2.55
2023-05-18T18:08:04.595Z,2.72
2023-05-18T18:10:33.193Z,1.95
2023-05-18T18:13:01.011Z,2.97
2023-05-18T18:15:29.006Z,5.40
2023-05-18T18:17:56.988Z,5.53
2023-05-18T18:20:24.457Z,1.95
2023-05-18T18:22:51.907Z,2.90
2023-05-18T18:25:20.028Z,2.53
2023-05-18T18:27:47.444Z,3.30
2023-05-18T18:30:15.205Z,2.50
2023-05-18T18:32:42.976Z,3.08
2023-05-18T18:35:10.787Z,1.98
2023-05-18T18:37:38.471Z,2.45
2023-05-18T18:40:07.605Z,2.65
2023-05-18T18:42:35.040Z,2.45
2023-05-18T18:45:02.657Z,2.65
2023-05-18T18:47:30.576Z,2.35
2023-05-18T18:49:58.089Z,5.37
2023-05-18T18:52:25.744Z,1.65
2023-05-18T18:54:53.860Z,3.75
2023-05-18T18:57:21.915Z,3.10
2023-05-18T18:59:49.422Z,2.37
2023-05-18T19:02:19.110Z,3.53
2023-05-18T19:04:46.844Z,7.03
2023-05-18T19:07:14.343Z,2.05
2023-05-18T19:09:42.113Z,2.28
2023-05-18T19:12:09.960Z,2.70
2023-05-18T19:14:37.720Z,1.50
2023-05-18T19:17:05.776Z,2.42
2023-05-18T19:19:33.501Z,1.60
2023-05-18T19:22:01.190Z,1.92
2023-05-18T19:24:28.924Z,3.05
2023-05-18T19:26:56.732Z,3.85
2023-05-18T19:29:26.938Z,2.42
2023-05-18T19:31:56.020Z,3.20
2023-05-18T19:34:23.646Z,2.03
2023-05-18T19:36:51.187Z,3.85
2023-05-18T19:39:19.277Z,5.25
2023-05-18T19:41:46.742Z,3.42
2023-05-18T19:44:14.684Z,3.45
2023-05-18T19:46:42.855Z,3.83
2023-05-18T19:49:10.782Z,4.87
2023-05-18T19:51:38.393Z,3.03
2023-05-18T19:54:06.112Z,4.35
2023-05-18T19:56:35.872Z,3.30
2023-05-18T19:59:03.338Z,3.95
2023-05-18T20:01:32.160Z,3.50
2023-05-18T20:04:00.373Z,5.35
2023-05-18T20:06:32.356Z,2.70
2023-05-18T20:09:00.695Z,2.37
2023-05-18T20:11:28.248Z,5.57
2023-05-18T20:13:55.697Z,2.10
2023-05-18T20:16:23.567Z,4.90
2023-05-18T20:18:51.963Z,2.40
2023-05-18T20:21:20.705Z,2.10
2023-05-18T20:23:48.425Z,2.30
2023-05-18T20:26:16.996Z,2.50
2023-05-18T20:28:44.488Z,4.32
2023-05-18T20:31:12.203Z,2.35
2023-05-18T20:33:40.211Z,2.95
2023-05-18T20:36:08.905Z,2.65
2023-05-18T20:38:38.716Z,4.25
2023-05-18T20:41:09.593Z,2.97
2023-05-18T20:43:37.789Z,2.83
2023-05-18T20:46:05.773Z,3.08
2023-05-18T20:48:33.314Z,2.40
2023-05-18T20:51:01.962Z,2.12
2023-05-18T20:53:29.436Z,3.80
2023-05-18T20:56:01.054Z,3.80
2023-05-18T20:58:28.948Z,3.67
2023-05-18T21:00:56.399Z,3.78
2023-05-18T21:03:23.985Z,3.25
2023-05-18T21:05:51.975Z,3.15
2023-05-18T21:08:19.388Z,3.67
2023-05-18T21:10:46.824Z,3.03
2023-05-18T21:13:15.104Z,2.85
2023-05-18T21:15:42.658Z,2.40
2023-05-18T21:18:10.221Z,4.65
2023-05-18T21:20:38.050Z,2.58
2023-05-18T21:23:05.518Z,4.60
2023-05-18T21:25:32.978Z,3.15
2023-05-18T21:28:00.843Z,3.92
2023-05-18T21:30:30.046Z,3.35
2023-05-18T21:32:57.741Z,4.47
2023-05-18T21:35:26.956Z,4.90
2023-05-18T21:37:54.423Z,3.80
2023-05-18T21:40:21.960Z,3.47
2023-05-18T21:42:49.754Z,3.10
2023-05-18T21:45:18.250Z,5.47
2023-05-18T21:47:46.039Z,4.20
2023-05-18T21:50:13.780Z,3.03
2023-05-18T21:52:41.331Z,4.43
2023-05-18T21:55:09.205Z,3.78
2023-05-18T21:57:36.909Z,4.37
2023-05-18T22:00:06.377Z,2.92
2023-05-18T22:02:40.990Z,5.12
2023-05-18T22:05:09.493Z,4.15
2023-05-18T22:07:36.920Z,5.72
2023-05-18T22:10:04.718Z,4.15
2023-05-18T22:12:33.299Z,5.65
2023-05-18T22:15:00.734Z,4.25
2023-05-18T22:17:28.233Z,3.75
2023-05-18T22:19:57.960Z,3.78
2023-05-18T22:24:56.702Z,3.55
2023-05-18T22:27:24.138Z,4.05
2023-05-18T22:29:51.761Z,5.03
2023-05-18T22:32:19.668Z,4.05
2023-05-18T22:34:47.096Z,4.68
2023-05-18T22:37:14.784Z,4.72
2023-05-18T22:39:42.785Z,5.32
2023-05-18T22:42:10.268Z,6.78
2023-05-18T22:44:37.770Z,7.50
2023-05-18T22:47:05.911Z,4.55
2023-05-18T22:49:35.653Z,5.47
2023-05-18T22:52:06.538Z,6.18
2023-05-18T22:54:34.298Z,5.20
2023-05-18T22:57:01.735Z,6.07
2023-05-18T22:59:29.166Z,7.25
2023-05-18T23:01:56.952Z,5.47
2023-05-18T23:04:24.513Z,5.25
2023-05-18T23:06:52.096Z,7.00
2023-05-18T23:09:20.101Z,7.18
2023-05-18T23:11:48.574Z,5.68
2023-05-18T23:14:16.157Z,6.12
2023-05-18T23:16:43.933Z,5.55
2023-05-18T23:19:14.570Z,6.03
2023-05-18T23:21:42.058Z,7.37
2023-05-18T23:24:12.282Z,6.30
2023-05-18T23:26:43.718Z,5.57
2023-05-18T23:29:11.560Z,6.07
2023-05-18T23:31:39.032Z,6.70
2023-05-18T23:34:06.682Z,6.03
2023-05-18T23:36:37.526Z,8.07
2023-05-18T23:39:05.356Z,6.35
2023-05-18T23:41:34.381Z,8.10
2023-05-18T23:44:02.336Z,5.45
2023-05-18T23:46:30.881Z,6.47
2023-05-18T23:48:59.687Z,6.28
2023-05-18T23:51:31.881Z,5.97
2023-05-18T23:53:59.458Z,6.28
2023-05-18T23:56:27.139Z,6.45
2023-05-18T23:58:55.124Z,5.82
